Time;durP1;ratioP1;P1;durP2;ratioP2;P2;SDS_P1;SDS_P2;PMS_P1;PMS_P2;Temp;Humidity;BMP_temperature;BMP_pressure;BME280_temperature;BME280_humidity;BME280_pressure;Samples;Min_cycle;Max_cycle;Signal;HPM_P1;HPM_P2
2021/10/21 00:04:08;;;;;;;4.47;1.47;;;;;13.30;98496.00;;;;10321367;28;20656;-78
2021/10/21 00:09:10;;;;;;;4.30;1.63;;;;;13.20;98508.00;;;;10284073;28;20615;-78
2021/10/21 00:14:12;;;;;;;3.43;1.33;;;;;13.20;98507.00;;;;10305180;28;20686;-79
2021/10/21 00:19:14;;;;;;;4.73;1.17;;;;;13.20;98528.00;;;;10271582;28;20201;-78
2021/10/21 00:24:16;;;;;;;5.87;1.10;;;;;13.10;98520.00;;;;10265907;28;20263;-79
2021/10/21 00:29:19;;;;;;;4.17;1.10;;;;;12.90;98505.00;;;;10284820;28;20247;-79
2021/10/21 00:34:21;;;;;;;2.87;0.70;;;;;12.90;98524.00;;;;10287479;28;20208;-78
2021/10/21 00:39:22;;;;;;;11.97;1.17;;;;;12.60;98513.00;;;;10280625;28;20204;-78
2021/10/21 00:44:24;;;;;;;3.83;0.90;;;;;12.40;98517.00;;;;10303988;28;20192;-78
2021/10/21 00:49:26;;;;;;;5.10;0.80;;;;;12.30;98491.00;;;;10265258;28;20205;-79
2021/10/21 00:54:28;;;;;;;4.53;0.90;;;;;12.30;98495.00;;;;10304124;28;20232;-79
2021/10/21 00:59:32;;;;;;;3.10;0.70;;;;;12.30;98493.00;;;;10288084;28;20200;-79
2021/10/21 01:04:34;;;;;;;5.30;1.63;;;;;12.30;98488.00;;;;10299515;28;20564;-78
2021/10/21 01:09:37;;;;;;;5.47;0.90;;;;;12.20;98489.00;;;;10294514;28;20258;-78
2021/10/21 01:14:40;;;;;;;7.90;1.10;;;;;12.00;98470.00;;;;10286499;28;20211;-79
2021/10/21 01:19:42;;;;;;;7.37;1.70;;;;;11.80;98453.00;;;;10272060;28;20686;-79
2021/10/21 01:24:44;;;;;;;3.80;1.10;;;;;11.60;98450.00;;;;10301853;28;20192;-78
2021/10/21 01:29:46;;;;;;;12.33;1.73;;;;;11.50;98418.00;;;;10301771;28;20200;-78
2021/10/21 01:34:48;;;;;;;13.00;2.03;;;;;11.50;98410.00;;;;10286492;28;20267;-79
2021/10/21 01:39:50;;;;;;;7.60;1.70;;;;;11.50;98406.00;;;;10261781;28;20200;-78
2021/10/21 01:44:52;;;;;;;7.77;2.30;;;;;11.40;98401.00;;;;10267978;28;20193;-78
2021/10/21 01:49:54;;;;;;;6.87;2.30;;;;;11.30;98384.00;;;;10270647;28;20200;-79
2021/10/21 01:54:56;;;;;;;9.70;2.20;;;;;11.30;98366.00;;;;10293720;28;20231;-78
2021/10/21 01:59:58;;;;;;;7.37;1.87;;;;;11.30;98367.00;;;;10284734;28;20262;-78
2021/10/21 02:05:00;;;;;;;8.83;1.93;;;;;11.30;98362.00;;;;10285831;28;20246;-78
2021/10/21 02:10:12;;;;;;;6.23;1.97;;;;;11.30;98351.00;;;;10339289;28;20207;-78
2021/10/21 02:15:14;;;;;;;12.50;2.17;;;;;11.30;98336.00;;;;10299932;28;20212;-78
2021/10/21 02:20:16;;;;;;;6.73;1.90;;;;;11.30;98331.00;;;;10299853;28;20255;-79
2021/10/21 02:25:19;;;;;;;7.97;1.73;;;;;11.30;98334.00;;;;10300611;28;20672;-78
2021/10/21 02:30:22;;;;;;;8.83;1.73;;;;;11.30;98325.00;;;;10262682;28;20200;-78
2021/10/21 02:35:24;;;;;;;8.27;1.87;;;;;11.20;98320.00;;;;10316256;28;20694;-78
2021/10/21 02:40:26;;;;;;;9.57;2.03;;;;;11.20;98306.00;;;;10300340;28;20198;-78
2021/10/21 02:45:28;;;;;;;12.13;2.33;;;;;11.20;98308.00;;;;10284263;28;20203;-78
2021/10/21 02:50:30;;;;;;;7.23;1.60;;;;;11.20;98318.00;;;;10300222;28;20722;-78
2021/10/21 02:55:32;;;;;;;11.97;1.90;;;;;11.20;98321.00;;;;10279259;28;20223;-78
2021/10/21 03:00:34;;;;;;;7.33;1.43;;;;;11.20;98289.00;;;;10292447;28;20200;-78
2021/10/21 03:05:36;;;;;;;6.57;1.00;;;;;11.20;98319.00;;;;10295379;28;20199;-78
2021/10/21 03:10:38;;;;;;;4.47;1.10;;;;;11.10;98318.00;;;;10291253;28;20200;-79
2021/10/21 03:15:39;;;;;;;3.97;1.00;;;;;11.10;98298.00;;;;10275060;28;20262;-78
2021/10/21 03:20:41;;;;;;;5.70;1.00;;;;;11.00;98301.00;;;;10299076;28;20216;-78
2021/10/21 03:25:43;;;;;;;2.27;1.23;;;;;11.00;98312.00;;;;10259550;28;20193;-78
2021/10/21 03:30:45;;;;;;;1.50;0.90;;;;;11.10;98330.00;;;;10304973;28;20200;-78
2021/10/21 03:35:47;;;;;;;3.07;0.97;;;;;11.10;98345.00;;;;10291644;28;20688;-78
2021/10/21 03:40:50;;;;;;;3.63;1.20;;;;;11.20;98363.00;;;;10290974;28;20192;-79
2021/10/21 03:45:52;;;;;;;5.23;1.33;;;;;11.10;98373.00;;;;10290945;28;20199;-79
2021/10/21 03:50:54;;;;;;;5.67;1.00;;;;;11.10;98428.00;;;;10291363;28;20203;-78
2021/10/21 03:55:58;;;;;;;3.07;0.80;;;;;11.00;98467.00;;;;10323147;28;20228;-79
2021/10/21 04:01:00;;;;;;;5.70;0.97;;;;;10.90;98502.00;;;;10283657;28;20197;-78
2021/10/21 04:06:02;;;;;;;5.87;1.00;;;;;10.70;98566.00;;;;10295349;28;20192;-78
2021/10/21 04:11:04;;;;;;;8.53;1.60;;;;;10.50;98592.00;;;;10273726;28;20259;-79
2021/10/21 04:16:06;;;;;;;6.57;1.23;;;;;10.30;98606.00;;;;10318289;28;20211;-79
2021/10/21 04:21:10;;;;;;;6.93;1.50;;;;;10.20;98655.00;;;;10305749;28;20571;-79
2021/10/21 04:26:12;;;;;;;10.90;2.30;;;;;10.10;98728.00;;;;10280912;28;20244;-78
2021/10/21 04:31:15;;;;;;;4.60;1.37;;;;;10.00;98781.00;;;;10289779;28;20201;-79
2021/10/21 04:36:17;;;;;;;10.30;2.10;;;;;10.00;98824.00;;;;10285452;28;20347;-79
2021/10/21 04:41:18;;;;;;;11.40;2.07;;;;;10.00;98849.00;;;;10302754;28;20243;-80
2021/10/21 04:46:20;;;;;;;8.47;1.90;;;;;9.90;98859.00;;;;10280394;28;20197;-78
2021/10/21 04:51:22;;;;;;;9.37;1.63;;;;;9.90;98914.00;;;;10294501;28;20196;-79
2021/10/21 04:56:25;;;;;;;9.33;1.57;;;;;9.90;98953.00;;;;10303589;28;20252;-78
2021/10/21 05:01:26;;;;;;;12.23;1.60;;;;;9.80;98967.00;;;;10303349;28;20243;-78
2021/10/21 05:06:29;;;;;;;15.10;2.13;;;;;9.80;99031.00;;;;10295484;28;20196;-80
2021/10/21 05:11:31;;;;;;;10.17;2.37;;;;;9.70;99065.00;;;;10303519;28;20196;-79
2021/10/21 05:16:33;;;;;;;9.90;2.07;;;;;9.60;99042.00;;;;10286278;28;20200;-79
2021/10/21 05:21:35;;;;;;;7.10;1.77;;;;;9.50;99148.00;;;;10279392;28;20197;-80
2021/10/21 05:26:37;;;;;;;13.27;2.73;;;;;9.50;99166.00;;;;10323515;28;20196;-79
2021/10/21 05:31:38;;;;;;;12.47;2.10;;;;;9.50;99207.00;;;;10285984;28;20192;-79
2021/10/21 05:36:41;;;;;;;12.40;2.43;;;;;9.50;99223.00;;;;10286092;28;20215;-79
2021/10/21 05:41:43;;;;;;;7.67;1.67;;;;;9.50;99259.00;;;;10286261;28;20188;-79
2021/10/21 05:46:48;;;;;;;15.00;2.43;;;;;9.50;99267.00;;;;10277274;28;20238;-78
2021/10/21 05:51:50;;;;;;;13.77;2.77;;;;;9.60;99299.00;;;;10285828;28;20200;-79
2021/10/21 05:56:52;;;;;;;11.63;2.73;;;;;9.70;99326.00;;;;10301338;28;20639;-79
2021/10/21 06:01:54;;;;;;;14.83;2.50;;;;;9.70;99348.00;;;;10270440;28;20247;-79
2021/10/21 06:06:56;;;;;;;16.10;3.20;;;;;9.80;99387.00;;;;10261619;28;20238;-79
2021/10/21 06:11:58;;;;;;;12.37;2.13;;;;;9.90;99420.00;;;;10261290;28;20880;-78
2021/10/21 06:17:01;;;;;;;11.90;2.30;;;;;9.90;99465.00;;;;10268582;28;20827;-79
2021/10/21 06:22:08;;;;;;;15.47;2.83;;;;;9.90;99484.00;;;;10284082;28;20206;-79
2021/10/21 06:27:11;;;;;;;13.93;2.57;;;;;9.90;99520.00;;;;10268910;28;20568;-79
2021/10/21 06:32:12;;;;;;;8.93;2.73;;;;;9.90;99538.00;;;;10285012;28;20204;-79
2021/10/21 06:37:14;;;;;;;14.03;2.90;;;;;10.00;99565.00;;;;10301036;28;20204;-79
2021/10/21 06:42:16;;;;;;;15.20;2.87;;;;;10.10;99576.00;;;;10294650;28;20262;-78
2021/10/21 06:47:18;;;;;;;16.70;2.93;;;;;10.10;99600.00;;;;10281217;28;20245;-79
2021/10/21 06:52:20;;;;;;;17.03;3.00;;;;;10.20;99602.00;;;;10289771;28;20207;-78
2021/10/21 06:57:22;;;;;;;13.00;2.50;;;;;10.30;99616.00;;;;10296295;28;20231;-79
2021/10/21 07:02:24;;;;;;;9.83;2.17;;;;;10.40;99644.00;;;;10299042;28;20667;-79
2021/10/21 07:07:26;;;;;;;9.57;2.37;;;;;10.50;99668.00;;;;10296385;28;20211;-78
2021/10/21 07:12:28;;;;;;;9.63;3.13;;;;;10.70;99690.00;;;;10283617;28;20247;-79
2021/10/21 07:17:30;;;;;;;7.93;3.40;;;;;10.50;99715.00;;;;10299192;28;20672;-79
2021/10/21 07:22:32;;;;;;;11.33;2.40;;;;;10.60;99729.00;;;;10268992;28;20206;-79
2021/10/21 07:27:34;;;;;;;14.10;2.20;;;;;10.50;99734.00;;;;10278091;28;20266;-79
2021/10/21 07:32:37;;;;;;;4.80;1.67;;;;;10.50;99751.00;;;;10315492;28;20192;-79
2021/10/21 07:37:39;;;;;;;5.43;1.70;;;;;10.60;99760.00;;;;10285764;28;20337;-79
2021/10/21 07:42:42;;;;;;;10.53;1.93;;;;;10.60;99773.00;;;;10303410;28;20243;-80
2021/10/21 07:47:44;;;;;;;6.73;2.00;;;;;10.90;99784.00;;;;10301701;28;20310;-79
2021/10/21 07:52:46;;;;;;;10.73;1.80;;;;;11.00;99795.00;;;;10291078;28;20243;-79
2021/10/21 07:57:48;;;;;;;6.63;1.43;;;;;10.90;99796.00;;;;10258032;28;20224;-79
2021/10/21 08:02:50;;;;;;;6.57;1.67;;;;;10.90;99820.00;;;;10288025;28;20201;-79
2021/10/21 08:07:53;;;;;;;6.10;1.80;;;;;11.30;99820.00;;;;10314829;28;20214;-79
2021/10/21 08:12:57;;;;;;;6.10;1.63;;;;;11.80;99823.00;;;;10303284;28;20199;-79
2021/10/21 08:17:58;;;;;;;6.03;1.30;;;;;12.30;99825.00;;;;10268509;28;20239;-79
2021/10/21 08:23:02;;;;;;;5.33;1.50;;;;;12.60;99824.00;;;;10286097;28;20287;-78
2021/10/21 08:28:04;;;;;;;7.07;1.40;;;;;12.90;99832.00;;;;10294852;28;20205;-79
2021/10/21 08:33:06;;;;;;;6.77;1.40;;;;;13.90;99837.00;;;;10298433;28;20196;-79
2021/10/21 08:38:08;;;;;;;9.83;1.70;;;;;13.70;99854.00;;;;10277523;28;20230;-79
2021/10/21 08:43:10;;;;;;;9.17;1.60;;;;;13.00;99865.00;;;;10301479;28;20660;-80
2021/10/21 08:48:13;;;;;;;6.57;1.73;;;;;12.90;99891.00;;;;10301613;28;20192;-80
2021/10/21 08:53:14;;;;;;;10.10;2.03;;;;;12.70;99884.00;;;;10301470;28;20200;-80
2021/10/21 08:58:16;;;;;;;30.40;2.63;;;;;12.60;99899.00;;;;10285681;28;20235;-80
2021/10/21 09:03:53;;;;;;;12.43;2.63;;;;;12.50;99887.00;;;;10285396;28;20207;-81
2021/10/21 09:08:56;;;;;;;9.10;1.67;;;;;12.40;99878.00;;;;10286949;28;20204;-79
2021/10/21 09:14:08;;;;;;;11.30;2.40;;;;;12.80;99886.00;;;;10272842;28;20216;-80
2021/10/21 09:19:12;;;;;;;7.63;1.83;;;;;13.00;99889.00;;;;10300049;28;20192;-79
2021/10/21 09:24:40;;;;;;;10.40;2.30;;;;;13.20;99896.00;;;;10287914;28;20259;-79
2021/10/21 09:29:45;;;;;;;9.90;2.50;;;;;13.70;99891.00;;;;10296790;28;20204;-81
2021/10/21 09:34:53;;;;;;;11.80;2.27;;;;;13.70;99899.00;;;;10264901;28;20216;-79
2021/10/21 09:40:04;;;;;;;14.83;2.67;;;;;13.40;99894.00;;;;10299599;28;20196;-80
2021/10/21 09:45:16;;;;;;;9.40;2.50;;;;;12.80;99918.00;;;;10294338;28;20259;-79
2021/10/21 09:50:23;;;;;;;4.70;1.83;;;;;12.60;99909.00;;;;10282487;28;20827;-79
2021/10/21 09:55:25;;;;;;;7.17;1.90;;;;;12.00;99937.00;;;;10273237;28;20219;-79
2021/10/21 10:00:36;;;;;;;6.17;1.30;;;;;11.20;99954.00;;;;10281759;28;20227;-79
2021/10/21 10:05:40;;;;;;;9.07;1.63;;;;;10.60;99990.00;;;;10266193;28;20212;-79
2021/10/21 10:10:44;;;;;;;6.87;1.70;;;;;10.50;100007.00;;;;10274204;28;20572;-80
2021/10/21 10:15:47;;;;;;;7.27;1.60;;;;;10.40;99996.00;;;;10268631;28;20251;-78
2021/10/21 10:20:55;;;;;;;8.07;1.90;;;;;10.30;100011.00;;;;10291366;28;20203;-79
2021/10/21 10:25:58;;;;;;;8.40;2.20;;;;;10.70;100027.00;;;;10291502;28;20192;-78
2021/10/21 10:31:01;;;;;;;7.70;2.00;;;;;11.30;100025.00;;;;10280605;28;20208;-78
2021/10/21 10:36:21;;;;;;;7.83;2.43;;;;;11.30;100031.00;;;;10279767;28;20332;-78
2021/10/21 10:41:48;;;;;;;5.93;2.00;;;;;11.20;100040.00;;;;10249295;28;20235;-79
2021/10/21 10:46:52;;;;;;;7.23;1.70;;;;;11.60;100019.00;;;;10311266;28;20192;-78
2021/10/21 10:51:56;;;;;;;7.07;1.83;;;;;12.10;100035.00;;;;10296235;28;20201;-78
2021/10/21 10:56:58;;;;;;;8.63;1.60;;;;;12.90;100029.00;;;;10279359;28;20220;-78
2021/10/21 11:02:24;;;;;;;7.93;1.80;;;;;13.00;100043.00;;;;10294961;28;20224;-78
2021/10/21 11:07:28;;;;;;;8.33;1.67;;;;;13.00;100055.00;;;;10316401;28;20198;-77
2021/10/21 11:12:29;;;;;;;6.57;1.90;;;;;13.20;100070.00;;;;10309238;28;20199;-78
2021/10/21 11:17:43;;;;;;;4.63;1.87;;;;;13.60;100084.00;;;;10317179;28;20208;-78
2021/10/21 11:22:45;;;;;;;5.67;2.03;;;;;12.80;100087.00;;;;10318137;28;20196;-78
2021/10/21 11:27:52;;;;;;;6.60;2.00;;;;;11.90;100105.00;;;;10293301;28;20188;-78
2021/10/21 11:32:57;;;;;;;3.97;1.40;;;;;11.60;100140.00;;;;10313135;28;20221;-78
2021/10/21 11:38:01;;;;;;;6.30;1.70;;;;;11.90;100148.00;;;;10309287;28;20262;-78
2021/10/21 11:43:08;;;;;;;5.53;1.40;;;;;11.80;100149.00;;;;10301371;28;20652;-78
2021/10/21 11:48:15;;;;;;;4.40;1.40;;;;;12.00;100144.00;;;;10270243;28;20188;-78
2021/10/21 11:53:19;;;;;;;2.63;1.13;;;;;12.00;100145.00;;;;10285890;28;20303;-77
2021/10/21 11:58:26;;;;;;;7.00;1.43;;;;;12.30;100151.00;;;;10303265;28;20259;-79
2021/10/21 12:03:30;;;;;;;6.10;1.90;;;;;12.70;100150.00;;;;10297310;28;20227;-78
2021/10/21 12:08:33;;;;;;;8.90;1.80;;;;;12.90;100132.00;;;;10288306;28;20211;-78
2021/10/21 12:13:38;;;;;;;4.93;1.10;;;;;13.00;100143.00;;;;10300249;28;20202;-79
2021/10/21 12:18:40;;;;;;;5.73;1.77;;;;;12.80;100152.00;;;;10318664;28;20243;-79
2021/10/21 12:23:52;;;;;;;7.10;1.47;;;;;12.90;100162.00;;;;10299980;28;20199;-79
2021/10/21 12:29:00;;;;;;;8.27;1.53;;;;;12.70;100158.00;;;;10317795;28;20196;-79
2021/10/21 12:34:13;;;;;;;7.17;1.67;;;;;13.20;100159.00;;;;10310175;28;20200;-80
2021/10/21 12:39:22;;;;;;;5.90;1.80;;;;;13.40;100163.00;;;;10301747;28;20196;-80
2021/10/21 12:44:29;;;;;;;5.50;1.33;;;;;13.60;100153.00;;;;10301067;28;20200;-79
2021/10/21 12:49:31;;;;;;;4.60;1.03;;;;;13.30;100205.00;;;;10301229;28;20212;-79
2021/10/21 12:54:38;;;;;;;3.87;1.00;;;;;13.10;100204.00;;;;10285297;28;20212;-79
2021/10/21 12:59:40;;;;;;;4.83;1.20;;;;;12.20;100221.00;;;;10272304;28;20207;-79
2021/10/21 13:04:50;;;;;;;7.40;1.60;;;;;11.30;100213.00;;;;10277865;28;20273;-78
2021/10/21 13:09:53;;;;;;;3.13;0.90;;;;;11.10;100270.00;;;;10296853;28;20219;-78
2021/10/21 13:14:55;;;;;;;3.80;1.40;;;;;10.90;100281.00;;;;10300824;28;20208;-78
2021/10/21 13:19:59;;;;;;;2.40;0.93;;;;;11.30;100296.00;;;;10305551;28;20208;-78
2021/10/21 13:25:05;;;;;;;1.97;1.03;;;;;11.40;100311.00;;;;10300967;28;20196;-78
2021/10/21 13:30:08;;;;;;;4.23;0.80;;;;;11.40;100309.00;;;;10284984;28;20215;-79
2021/10/21 13:35:10;;;;;;;1.83;0.53;;;;;11.60;100333.00;;;;10274216;28;20208;-79
2021/10/21 13:40:12;;;;;;;3.30;0.60;;;;;11.50;100334.00;;;;10283919;28;20271;-78
2021/10/21 13:45:14;;;;;;;2.67;1.00;;;;;11.60;100346.00;;;;10291625;28;20196;-78
2021/10/21 13:50:16;;;;;;;3.63;1.00;;;;;11.80;100348.00;;;;10309123;28;20195;-78
2021/10/21 13:55:18;;;;;;;2.23;1.13;;;;;11.70;100368.00;;;;10304917;28;20224;-78
2021/10/21 14:00:20;;;;;;;5.10;0.90;;;;;11.70;100377.00;;;;10294740;28;20204;-78
2021/10/21 14:05:23;;;;;;;1.23;0.57;;;;;11.00;100379.00;;;;10299022;28;20200;-78
2021/10/21 14:10:25;;;;;;;4.53;1.20;;;;;10.70;100407.00;;;;10296815;28;20208;-78
2021/10/21 14:15:27;;;;;;;8.73;1.37;;;;;11.20;100416.00;;;;10289850;28;20220;-78
2021/10/21 14:20:28;;;;;;;6.57;3.03;;;;;11.40;100419.00;;;;10283002;28;20208;-78
2021/10/21 14:25:30;;;;;;;5.23;1.27;;;;;11.10;100421.00;;;;10253941;28;20679;-78
2021/10/21 14:30:33;;;;;;;3.20;1.20;;;;;11.00;100449.00;;;;10314876;28;20192;-78
2021/10/21 14:35:35;;;;;;;4.00;1.57;;;;;11.40;100463.00;;;;10288070;28;20211;-78
2021/10/21 14:40:37;;;;;;;6.53;1.33;;;;;11.10;100461.00;;;;10314708;28;20196;-78
2021/10/21 14:45:40;;;;;;;3.73;1.17;;;;;10.40;100484.00;;;;10282250;28;20225;-78
2021/10/21 14:50:43;;;;;;;5.67;1.20;;;;;10.40;100485.00;;;;10310284;28;20249;-78
2021/10/21 14:55:45;;;;;;;7.53;2.20;;;;;10.40;100507.00;;;;10306632;28;20227;-77
2021/10/21 15:00:47;;;;;;;4.37;0.93;;;;;10.40;100510.00;;;;10293168;28;20556;-78
2021/10/21 15:05:59;;;;;;;5.57;1.70;;;;;10.20;100527.00;;;;10313822;28;20196;-78
2021/10/21 15:26:49;;;;;;;6.67;1.73;;;;;9.10;100587.00;;;;10302884;28;20200;-78
2021/10/21 15:31:51;;;;;;;6.30;2.10;;;;;8.80;100592.00;;;;10289001;28;20644;-78
2021/10/21 15:36:55;;;;;;;6.30;1.03;;;;;8.80;100610.00;;;;10297589;28;20205;-78
2021/10/21 15:41:57;;;;;;;14.70;1.77;;;;;8.80;100605.00;;;;10241336;28;20819;-78
2021/10/21 15:47:01;;;;;;;3.47;1.47;;;;;8.90;100614.00;;;;10291938;28;20671;-78
2021/10/21 16:13:24;;;;;;;13.90;3.47;;;;;8.50;100658.00;;;;10288751;28;20574;-78
2021/10/21 16:18:27;;;;;;;10.57;2.03;;;;;8.40;100677.00;;;;10287709;28;20204;-77
2021/10/21 16:23:36;;;;;;;9.67;2.60;;;;;8.30;100653.00;;;;10286493;28;20200;-78
2021/10/21 16:28:38;;;;;;;13.50;2.80;;;;;8.20;100662.00;;;;10287629;28;20773;-78
2021/10/21 16:33:40;;;;;;;14.13;2.60;;;;;8.20;100680.00;;;;10301657;28;20550;-78
2021/10/21 16:38:42;;;;;;;17.40;2.40;;;;;8.00;100681.00;;;;10280877;28;20205;-77
2021/10/21 16:43:51;;;;;;;14.73;2.63;;;;;7.90;100687.00;;;;10296245;28;20591;-77
2021/10/21 16:48:53;;;;;;;11.17;2.40;;;;;7.80;100693.00;;;;10296338;28;20196;-77
2021/10/21 16:53:56;;;;;;;9.43;2.47;;;;;7.70;100703.00;;;;10312971;28;20188;-77
2021/10/21 16:58:59;;;;;;;17.80;3.90;;;;;7.80;100708.00;;;;10277777;28;20216;-77
2021/10/21 17:04:01;;;;;;;14.43;3.10;;;;;7.90;100711.00;;;;10299481;28;20291;-77
2021/10/21 17:09:03;;;;;;;12.13;2.70;;;;;8.00;100741.00;;;;10299220;28;20216;-78
2021/10/21 17:14:05;;;;;;;18.53;3.00;;;;;8.10;100745.00;;;;10299317;28;20291;-78
2021/10/21 17:19:08;;;;;;;9.17;2.90;;;;;8.10;100745.00;;;;10293669;28;20204;-78
2021/10/21 17:24:11;;;;;;;12.50;3.20;;;;;8.00;100742.00;;;;10301868;28;20204;-77
2021/10/21 17:29:13;;;;;;;14.20;2.80;;;;;7.80;100753.00;;;;10289905;28;20203;-77
2021/10/21 17:34:14;;;;;;;13.83;3.30;;;;;7.60;100756.00;;;;10283410;28;20201;-77
2021/10/21 17:39:16;;;;;;;14.20;3.60;;;;;7.50;100762.00;;;;10282067;28;20287;-78
2021/10/21 17:44:18;;;;;;;16.97;4.27;;;;;7.40;100774.00;;;;10322971;28;20257;-77
2021/10/21 17:49:20;;;;;;;14.40;4.80;;;;;7.30;100779.00;;;;10338176;28;20242;-77
2021/10/21 17:54:22;;;;;;;19.73;4.57;;;;;7.20;100788.00;;;;10322331;28;20540;-78
2021/10/21 17:59:24;;;;;;;18.90;4.60;;;;;7.20;100797.00;;;;10289692;28;20429;-77
2021/10/21 18:04:28;;;;;;;18.83;4.50;;;;;7.20;100814.00;;;;10279772;28;20574;-77
2021/10/21 18:09:30;;;;;;;19.23;3.90;;;;;7.10;100819.00;;;;10256704;28;20212;-77
2021/10/21 18:14:33;;;;;;;14.33;3.50;;;;;7.20;100824.00;;;;10289638;28;20207;-78
2021/10/21 18:19:35;;;;;;;13.27;3.70;;;;;7.10;100812.00;;;;10321854;28;20219;-77
2021/10/21 18:24:37;;;;;;;15.87;4.70;;;;;7.10;100808.00;;;;10296071;28;20267;-78
2021/10/21 18:29:39;;;;;;;13.70;4.07;;;;;7.00;100817.00;;;;10307597;28;20228;-78
2021/10/21 18:34:41;;;;;;;12.37;4.03;;;;;6.90;100820.00;;;;10330080;28;20207;-77
2021/10/21 18:39:44;;;;;;;16.00;4.00;;;;;6.90;100824.00;;;;10307818;28;20208;-77
2021/10/21 18:44:46;;;;;;;20.00;4.67;;;;;6.90;100822.00;;;;10322565;28;20200;-77
2021/10/21 18:49:49;;;;;;;21.27;5.07;;;;;7.00;100831.00;;;;10265136;28;20192;-77
2021/10/21 18:54:51;;;;;;;18.30;4.10;;;;;7.00;100839.00;;;;10280983;28;20216;-77
2021/10/21 18:59:53;;;;;;;12.50;4.17;;;;;7.00;100850.00;;;;10312065;28;20197;-77
2021/10/21 19:04:56;;;;;;;14.03;5.13;;;;;6.90;100875.00;;;;10302879;28;20200;-77
2021/10/21 19:09:58;;;;;;;25.50;7.57;;;;;6.90;100894.00;;;;10313944;28;20196;-77
2021/10/21 19:15:00;;;;;;;18.17;5.03;;;;;6.80;100899.00;;;;10281814;28;20212;-77
2021/10/21 19:20:06;;;;;;;13.53;3.70;;;;;6.80;100917.00;;;;10279057;28;20231;-77
2021/10/21 19:25:08;;;;;;;15.47;4.13;;;;;6.80;100918.00;;;;10291898;28;21002;-77
2021/10/21 19:30:11;;;;;;;13.50;4.00;;;;;6.80;100937.00;;;;10297289;28;20207;-77
2021/10/21 19:35:14;;;;;;;12.90;4.73;;;;;6.70;100934.00;;;;10309776;28;20680;-77
2021/10/21 19:40:16;;;;;;;11.03;4.17;;;;;6.60;100961.00;;;;10286059;28;20200;-77
2021/10/21 19:45:17;;;;;;;22.87;4.80;;;;;6.60;100961.00;;;;10291647;28;20196;-77
2021/10/21 19:50:19;;;;;;;16.93;3.90;;;;;6.60;100971.00;;;;10285867;28;20647;-76
2021/10/21 19:55:22;;;;;;;15.57;4.97;;;;;6.60;100979.00;;;;10285736;28;20219;-77
2021/10/21 20:00:24;;;;;;;19.53;4.77;;;;;6.60;100985.00;;;;10303423;28;20204;-77
2021/10/21 20:05:26;;;;;;;16.23;4.87;;;;;6.70;100990.00;;;;10302912;28;20213;-77
2021/10/21 20:10:32;;;;;;;16.40;4.90;;;;;6.80;101006.00;;;;10322060;28;20204;-77
2021/10/21 20:15:37;;;;;;;17.70;4.73;;;;;6.90;101014.00;;;;10292513;28;20204;-77
2021/10/21 20:20:40;;;;;;;25.80;4.47;;;;;6.90;101021.00;;;;10269467;28;20197;-77
2021/10/21 20:25:44;;;;;;;14.57;4.97;;;;;6.80;101039.00;;;;10272946;28;20188;-77
2021/10/21 20:30:48;;;;;;;12.70;4.50;;;;;6.70;101045.00;;;;10283670;28;20201;-77
2021/10/21 20:35:50;;;;;;;19.37;4.17;;;;;6.60;101047.00;;;;10265862;28;20220;-77
2021/10/21 20:40:56;;;;;;;14.80;4.87;;;;;6.50;101036.00;;;;10289803;28;20250;-77
2021/10/21 20:45:58;;;;;;;14.80;4.70;;;;;6.40;101058.00;;;;10300061;28;20195;-77
2021/10/21 20:51:01;;;;;;;17.83;4.10;;;;;6.30;101072.00;;;;10314335;28;20197;-77
2021/10/21 20:56:03;;;;;;;10.43;3.77;;;;;6.20;101069.00;;;;10286951;28;20219;-77
2021/10/21 21:01:09;;;;;;;11.83;4.10;;;;;6.10;101075.00;;;;10282897;28;20188;-77
2021/10/21 21:06:11;;;;;;;14.37;4.50;;;;;6.00;101081.00;;;;10306358;28;20203;-77
2021/10/21 21:11:14;;;;;;;19.90;4.60;;;;;6.00;101075.00;;;;10313390;28;20266;-77
2021/10/21 21:16:16;;;;;;;12.40;4.00;;;;;6.00;101073.00;;;;10296252;28;20671;-77
2021/10/21 21:21:19;;;;;;;15.93;4.30;;;;;5.90;101079.00;;;;10304090;28;20196;-77
2021/10/21 21:26:22;;;;;;;23.57;4.37;;;;;5.90;101084.00;;;;10301092;28;20212;-77
2021/10/21 21:31:24;;;;;;;15.83;4.13;;;;;5.80;101090.00;;;;10304151;28;20221;-78
2021/10/21 21:36:27;;;;;;;15.27;4.80;;;;;5.80;101095.00;;;;10285236;28;20308;-77
2021/10/21 21:41:29;;;;;;;16.80;5.13;;;;;5.80;101091.00;;;;10300869;28;20198;-77
2021/10/21 21:46:31;;;;;;;23.57;4.83;;;;;5.80;101095.00;;;;10281284;28;20204;-77
2021/10/21 21:51:33;;;;;;;18.60;5.60;;;;;5.80;101090.00;;;;10304067;28;20193;-77
2021/10/21 21:56:35;;;;;;;17.40;5.73;;;;;5.80;101095.00;;;;10290283;28;20216;-77
2021/10/21 22:01:37;;;;;;;21.70;5.57;;;;;5.80;101094.00;;;;10337789;28;20660;-77
2021/10/21 22:06:39;;;;;;;21.70;5.53;;;;;5.80;101095.00;;;;10301407;28;20282;-77
2021/10/21 22:11:41;;;;;;;17.60;5.57;;;;;5.90;101111.00;;;;10301176;28;20199;-77
2021/10/21 22:16:54;;;;;;;14.90;6.13;;;;;5.90;101117.00;;;;10317359;28;20220;-77
2021/10/21 22:21:59;;;;;;;18.97;5.63;;;;;5.80;101120.00;;;;10301348;28;20279;-77
2021/10/21 22:27:01;;;;;;;20.53;6.37;;;;;5.80;101124.00;;;;10301191;28;20189;-77
2021/10/21 22:32:04;;;;;;;15.83;5.67;;;;;5.90;101127.00;;;;10260623;28;20244;-77
2021/10/21 22:37:06;;;;;;;16.07;5.17;;;;;5.90;101134.00;;;;10291075;28;20200;-77
2021/10/21 22:42:07;;;;;;;13.57;5.30;;;;;5.90;101126.00;;;;10284600;28;21054;-77
2021/10/21 22:47:10;;;;;;;15.30;5.13;;;;;5.80;101139.00;;;;10284618;28;20246;-77
2021/10/21 22:52:12;;;;;;;20.37;5.30;;;;;5.70;101139.00;;;;10285340;28;20247;-77
2021/10/21 22:57:18;;;;;;;11.77;4.80;;;;;5.60;101136.00;;;;10271477;28;20901;-77
2021/10/21 23:02:22;;;;;;;15.90;5.43;;;;;5.50;101140.00;;;;10273529;28;20291;-77
2021/10/21 23:07:25;;;;;;;15.07;5.23;;;;;5.40;101147.00;;;;10316528;28;20200;-77
2021/10/21 23:12:27;;;;;;;14.47;5.20;;;;;5.40;101157.00;;;;10292090;28;20655;-77
2021/10/21 23:17:31;;;;;;;17.77;5.10;;;;;5.30;101159.00;;;;10324316;28;20204;-77
2021/10/21 23:22:32;;;;;;;16.93;5.60;;;;;5.30;101161.00;;;;10291906;28;20195;-77
2021/10/21 23:27:34;;;;;;;16.67;4.90;;;;;5.30;101166.00;;;;10307315;28;20270;-77
2021/10/21 23:32:36;;;;;;;17.47;4.70;;;;;5.20;101174.00;;;;10291899;28;20228;-77
2021/10/21 23:37:38;;;;;;;15.63;5.00;;;;;5.20;101173.00;;;;10307966;28;20211;-77
2021/10/21 23:42:40;;;;;;;15.73;4.60;;;;;5.10;101177.00;;;;10291408;28;20313;-77
2021/10/21 23:47:42;;;;;;;21.30;5.07;;;;;5.10;101180.00;;;;10323018;28;20235;-77
2021/10/21 23:52:44;;;;;;;11.90;4.43;;;;;5.10;101177.00;;;;10290686;28;20723;-77
2021/10/21 23:57:46;;;;;;;20.33;5.50;;;;;5.20;101174.00;;;;10290627;28;20279;-77
